»·PEaware :: N5002T KSBD-KEMT

N5002T :: KSBD-KEMT

FLIGHT INFORMATION

Flight Status: Arrived
Operator: Privately registered:
United States
More flights under this callsign
Pilot: Hunter M. (19355)
Aircraft: CESSNA 172 SKYHAWK
(C172)
More flights by this aircraft type
Origin: KSBD San Bernardino Intl
United States
Destination: KEMT El Monte
United States
More flights between these airports :: More routes between these airports
Route: DIRECT
File this flight plan on PilotEdge
Remarks: cat 7
Altitude:
(Current/Filed)
4,500ft
Speed:
(Current/Filed)
118kts
Departed: 18-Dec-18 02:08 PM
Arrived: 18-Dec-18 02:42 PM
Distance/Time
Traveled:
1nm/0:33
Distance/Time
To Go:
Arrived

Flight Plot

Page will automatically refresh every two minutes.


Map Options




Map Legend


Flown Route
Filed Route
Departure Airport
Arrival Airport
Navaid (VOR, NDB)
Fix

Horizontal Profiles

Position Reports

Time Latitude Longitude Heading Altitude Ground
Speed
18-Dec-18 13:47 34.102117 -117.225536 268 1160ft 0kts
18-Dec-18 13:48 34.102117 -117.225537 268 1160ft 0kts
18-Dec-18 13:49 34.102117 -117.225537 268 1160ft 0kts
18-Dec-18 13:50 34.102117 -117.225538 268 1160ft 0kts
18-Dec-18 13:51 34.102117 -117.225538 268 1160ft 0kts
18-Dec-18 13:52 34.102117 -117.225539 268 1160ft 0kts
18-Dec-18 13:53 34.102117 -117.225540 268 1160ft 0kts
18-Dec-18 13:54 34.102117 -117.225540 268 1160ft 0kts
18-Dec-18 13:55 34.101755 -117.225333 177 1160ft 8kts
18-Dec-18 13:56 34.100161 -117.226619 246 1160ft 2kts
18-Dec-18 13:57 34.099817 -117.227268 262 1160ft 0kts
18-Dec-18 13:58 34.099166 -117.227204 253 1160ft 4kts
18-Dec-18 13:59 34.097364 -117.233434 250 1160ft 21kts
18-Dec-18 14:00 34.094852 -117.241967 249 1160ft 33kts
18-Dec-18 14:01 34.092006 -117.250730 176 1160ft 11kts
18-Dec-18 14:02 34.091831 -117.250659 157 1160ft 0kts
18-Dec-18 14:03 34.091831 -117.250658 157 1160ft 0kts
18-Dec-18 14:04 34.091830 -117.250658 157 1160ft 0kts
18-Dec-18 14:05 34.091830 -117.250658 157 1160ft 0kts
18-Dec-18 14:06 34.091045 -117.249380 73 1160ft 13kts
18-Dec-18 14:07 34.097568 -117.226585 72 1514ft 90kts
18-Dec-18 14:08 34.110345 -117.202965 14 2214ft 94kts
18-Dec-18 14:09 34.136331 -117.201618 293 2624ft 108kts
18-Dec-18 14:10 34.131003 -117.231341 194 2623ft 111kts
18-Dec-18 14:11 34.103524 -117.238287 192 2596ft 94kts
18-Dec-18 14:12 34.095367 -117.266086 265 2605ft 101kts
18-Dec-18 14:13 34.100692 -117.300221 281 2601ft 104kts
18-Dec-18 14:14 34.106790 -117.334562 281 2603ft 104kts
18-Dec-18 14:15 34.105967 -117.365237 247 3236ft 89kts
18-Dec-18 14:16 34.099515 -117.392772 261 3910ft 82kts
18-Dec-18 14:17 34.098552 -117.420747 266 4509ft 89kts
18-Dec-18 14:18 34.098089 -117.452739 270 4511ft 95kts
18-Dec-18 14:19 34.097507 -117.484511 270 4514ft 94kts
18-Dec-18 14:20 34.096908 -117.516182 270 4515ft 94kts
18-Dec-18 14:21 34.096303 -117.548089 270 4514ft 95kts
18-Dec-18 14:22 34.095679 -117.580808 270 4515ft 99kts
18-Dec-18 14:23 34.095026 -117.614175 270 4514ft 99kts
18-Dec-18 14:24 34.094362 -117.647547 270 4514ft 99kts
18-Dec-18 14:25 34.093687 -117.680947 270 4523ft 99kts
18-Dec-18 14:26 34.093004 -117.714386 270 4524ft 99kts
18-Dec-18 14:27 34.092310 -117.749024 270 4245ft 112kts
18-Dec-18 14:28 34.091555 -117.784191 270 3580ft 90kts
18-Dec-18 14:29 34.090932 -117.812844 270 3049ft 82kts
18-Dec-18 14:30 34.090341 -117.840316 267 2543ft 82kts
18-Dec-18 14:31 34.089725 -117.868298 266 2041ft 85kts
18-Dec-18 14:32 34.089050 -117.897907 268 1814ft 90kts
18-Dec-18 14:33 34.088355 -117.927931 265 1814ft 89kts
18-Dec-18 14:34 34.087665 -117.957824 267 1814ft 88kts
18-Dec-18 14:35 34.087009 -117.988180 267 1653ft 98kts
18-Dec-18 14:36 34.091443 -118.019642 341 1237ft 98kts
18-Dec-18 14:37 34.108028 -117.998116 61 1346ft 87kts
18-Dec-18 14:38 34.121641 -118.000596 266 1329ft 84kts
18-Dec-18 14:39 34.110140 -118.021116 204 1019ft 76kts
18-Dec-18 14:40 34.091850 -118.031519 203 391ft 67kts
18-Dec-18 14:41 34.081632 -118.037349 205 299ft 20kts
18-Dec-18 14:42 34.081206 -118.036716 24 299ft 13kts
18-Dec-18 14:43 34.083183 -118.035530 28 299ft 0kts
18-Dec-18 14:44 34.083235 -118.034737 116 299ft 0kts
18-Dec-18 14:45 34.102117 -117.225522 268 1160ft 0kts
18-Dec-18 14:46 34.102117 -117.225522 268 1160ft 0kts

Navigation Log

Ident Type
Flight plan parsing failed, navigation log unavailable